createdAt,value
2022-10-18T00:00:02.575Z,99453.39
2022-10-18T00:02:29.192Z,99457.59
2022-10-18T00:04:55.653Z,99453.71
2022-10-18T00:07:22.193Z,99452.58
2022-10-18T00:09:48.735Z,99448.21
2022-10-18T00:12:15.277Z,99449.83
2022-10-18T00:14:41.713Z,99443.50
2022-10-18T00:17:08.449Z,99446.14
2022-10-18T00:19:35.205Z,99442.88
2022-10-18T00:22:01.631Z,99439.92
2022-10-18T00:24:28.190Z,99439.81
2022-10-18T00:26:54.737Z,99441.30
2022-10-18T00:29:21.240Z,99439.14
2022-10-18T00:31:47.810Z,99439.17
2022-10-18T00:34:15.950Z,99435.73
2022-10-18T00:36:43.933Z,99434.09
2022-10-18T00:39:16.326Z,99435.34
2022-10-18T00:41:43.398Z,99434.80
2022-10-18T00:44:13.012Z,99432.40
2022-10-18T00:46:45.288Z,99431.08
2022-10-18T00:49:16.538Z,99430.60
2022-10-18T00:51:47.991Z,99428.54
2022-10-18T00:54:16.480Z,99425.48
2022-10-18T00:56:44.159Z,99423.80
2022-10-18T00:59:12.282Z,99420.88
2022-10-18T01:01:38.735Z,99422.28
2022-10-18T01:04:05.304Z,99419.20
2022-10-18T01:06:33.588Z,99422.02
2022-10-18T01:09:52.387Z,99411.54
2022-10-18T01:12:37.164Z,99409.41
2022-10-18T01:15:13.393Z,99409.46
2022-10-18T01:17:48.988Z,99406.77
2022-10-18T01:20:39.449Z,99406.60
2022-10-18T01:23:28.205Z,99404.89
2022-10-18T01:26:16.865Z,99401.44
2022-10-18T01:28:55.621Z,99396.77
2022-10-18T01:31:28.384Z,99398.16
2022-10-18T01:34:05.220Z,99394.87
2022-10-18T01:36:37.965Z,99394.20
2022-10-18T01:39:09.164Z,99387.34
2022-10-18T01:41:39.796Z,99390.13
2022-10-18T01:44:09.545Z,99386.66
2022-10-18T01:46:37.721Z,99387.19
2022-10-18T01:49:05.185Z,99383.70
2022-10-18T01:51:32.905Z,99381.13
2022-10-18T01:54:00.753Z,99382.00
2022-10-18T01:56:35.461Z,99376.67
2022-10-18T01:59:33.062Z,99378.61
2022-10-18T02:02:10.323Z,99379.22
2022-10-18T02:04:46.800Z,99376.19
2022-10-18T02:07:23.062Z,99372.23
2022-10-18T02:10:02.036Z,99372.30
2022-10-18T02:12:32.590Z,99374.51
2022-10-18T02:15:02.255Z,99372.27
2022-10-18T02:17:30.325Z,99370.36
2022-10-18T02:19:57.273Z,99365.96
2022-10-18T02:22:32.735Z,99367.23
2022-10-18T02:25:04.892Z,99365.76
2022-10-18T02:27:31.467Z,99367.48
2022-10-18T02:29:58.707Z,99369.11
2022-10-18T02:32:48.254Z,99367.07
2022-10-18T02:35:25.878Z,99366.34
2022-10-18T02:37:55.036Z,99364.06
2022-10-18T02:40:21.508Z,99356.95
2022-10-18T02:42:53.694Z,99355.80
2022-10-18T02:45:20.443Z,99358.14
2022-10-18T02:47:47.395Z,99359.98
2022-10-18T02:50:14.343Z,99358.08
2022-10-18T02:52:40.986Z,99357.39
2022-10-18T02:55:08.639Z,99361.70
2022-10-18T02:57:35.187Z,99362.45
2022-10-18T03:00:02.175Z,99358.77
2022-10-18T03:02:28.687Z,99363.70
2022-10-18T03:04:55.138Z,99362.90
2022-10-18T03:07:21.643Z,99358.83
2022-10-18T03:09:48.221Z,99357.01
2022-10-18T03:12:15.280Z,99356.85
2022-10-18T03:14:41.897Z,99353.24
2022-10-18T03:17:08.437Z,99355.77
2022-10-18T03:19:34.977Z,99357.16
2022-10-18T03:22:01.523Z,99353.51
2022-10-18T03:24:27.956Z,99353.15
2022-10-18T03:26:54.364Z,99356.05
2022-10-18T03:29:20.831Z,99353.13
2022-10-18T03:31:47.271Z,99351.08
2022-10-18T03:34:13.792Z,99354.24
2022-10-18T03:36:40.353Z,99355.38
2022-10-18T03:39:06.892Z,99355.48
2022-10-18T03:41:33.639Z,99360.90
2022-10-18T03:44:00.175Z,99359.61
2022-10-18T03:46:26.716Z,99358.66
2022-10-18T03:48:53.268Z,99362.34
2022-10-18T03:51:19.734Z,99358.69
2022-10-18T03:53:46.157Z,99361.66
2022-10-18T03:56:12.678Z,99359.02
2022-10-18T03:58:39.221Z,99356.98
2022-10-18T04:01:05.759Z,99355.56
2022-10-18T04:03:32.168Z,99355.52
2022-10-18T04:05:58.942Z,99355.16
2022-10-18T04:08:25.480Z,99354.30
2022-10-18T04:10:52.124Z,99355.25
2022-10-18T04:13:18.769Z,99355.34
2022-10-18T04:15:45.304Z,99357.30
2022-10-18T04:18:11.768Z,99361.89
2022-10-18T04:20:38.279Z,99364.39
2022-10-18T04:23:04.713Z,99362.36
2022-10-18T04:25:31.330Z,99362.23
2022-10-18T04:27:58.108Z,99362.77
2022-10-18T04:30:24.621Z,99364.61
2022-10-18T04:32:51.183Z,99364.91
2022-10-18T04:35:17.922Z,99366.25
2022-10-18T04:37:44.360Z,99369.17
2022-10-18T04:40:11.555Z,99368.34
2022-10-18T04:42:38.055Z,99369.06
2022-10-18T04:45:05.213Z,99366.70
2022-10-18T04:47:32.140Z,99365.38
2022-10-18T04:49:58.869Z,99363.21
2022-10-18T04:52:25.555Z,99367.38
2022-10-18T04:54:52.082Z,99368.92
2022-10-18T04:57:18.621Z,99366.83
2022-10-18T04:59:45.057Z,99372.33
2022-10-18T05:02:11.697Z,99373.88
2022-10-18T05:04:38.295Z,99376.67
2022-10-18T05:07:04.750Z,99376.59
2022-10-18T05:09:31.308Z,99376.67
2022-10-18T05:11:57.847Z,99376.50
2022-10-18T05:14:24.384Z,99377.10
2022-10-18T05:16:50.953Z,99376.50
2022-10-18T05:19:17.409Z,99378.14
2022-10-18T05:21:43.906Z,99378.95
2022-10-18T05:24:12.275Z,99380.11
2022-10-18T05:26:38.934Z,99382.83
2022-10-18T05:29:05.799Z,99381.88
2022-10-18T05:31:32.321Z,99383.53
2022-10-18T05:33:58.791Z,99385.18
2022-10-18T05:36:25.219Z,99383.87
2022-10-18T05:38:51.734Z,99380.08
2022-10-18T05:41:18.271Z,99383.57
2022-10-18T05:43:44.809Z,99386.90
2022-10-18T05:46:15.056Z,99383.97
2022-10-18T05:48:44.148Z,99380.70
2022-10-18T05:51:10.784Z,99378.13
2022-10-18T05:53:38.005Z,99376.71
2022-10-18T05:56:06.171Z,99377.05
2022-10-18T05:58:33.374Z,99372.95
2022-10-18T06:01:01.479Z,99373.81
2022-10-18T06:03:28.201Z,99376.88
2022-10-18T06:06:03.343Z,99374.94
2022-10-18T06:08:30.341Z,99375.38
2022-10-18T06:10:57.335Z,99372.23
2022-10-18T06:13:24.085Z,99369.61
2022-10-18T06:15:50.920Z,99370.36
2022-10-18T06:18:17.364Z,99372.27
2022-10-18T06:20:43.833Z,99371.48
2022-10-18T06:23:10.340Z,99371.72
2022-10-18T06:25:36.884Z,99373.08
2022-10-18T06:28:07.754Z,99373.44
2022-10-18T06:30:36.688Z,99376.75
2022-10-18T06:33:03.155Z,99377.06
2022-10-18T06:35:29.692Z,99373.70
2022-10-18T06:37:56.166Z,99371.05
2022-10-18T06:40:22.573Z,99371.21
2022-10-18T06:42:59.945Z,99364.98
2022-10-18T06:45:33.904Z,99365.28
2022-10-18T06:48:00.322Z,99364.10
2022-10-18T06:50:26.848Z,99367.02
2022-10-18T06:52:53.353Z,99368.60
2022-10-18T06:55:19.826Z,99370.13
2022-10-18T06:57:46.682Z,99365.34
2022-10-18T07:00:13.827Z,99365.73
2022-10-18T07:02:40.307Z,99365.77
2022-10-18T07:05:10.396Z,99370.89
2022-10-18T07:07:37.302Z,99370.27
2022-10-18T07:10:04.787Z,99366.42
2022-10-18T07:12:32.567Z,99361.77
2022-10-18T07:14:59.209Z,99357.80
2022-10-18T07:17:26.772Z,99352.27
2022-10-18T07:19:53.308Z,99351.64
2022-10-18T07:22:19.753Z,99351.33
2022-10-18T07:24:46.171Z,99348.88
2022-10-18T07:27:12.970Z,99347.55
2022-10-18T07:29:39.476Z,99344.24
2022-10-18T07:32:06.017Z,99342.20
2022-10-18T07:34:32.660Z,99343.60
2022-10-18T07:36:59.207Z,99345.26
2022-10-18T07:39:25.741Z,99345.66
2022-10-18T07:41:52.210Z,99345.78
2022-10-18T07:44:18.798Z,99339.67
2022-10-18T07:46:45.364Z,99338.98
2022-10-18T07:49:11.768Z,99339.74
2022-10-18T07:51:38.268Z,99338.95
2022-10-18T07:54:04.779Z,99337.02
2022-10-18T07:56:31.182Z,99336.53
2022-10-18T07:58:57.657Z,99334.98
2022-10-18T08:01:25.197Z,99331.28
2022-10-18T08:03:52.789Z,99328.65
2022-10-18T08:06:21.011Z,99329.89
2022-10-18T08:08:47.615Z,99325.77
2022-10-18T08:11:20.039Z,99324.08
2022-10-18T08:13:46.958Z,99317.91
2022-10-18T08:16:19.923Z,99319.95
2022-10-18T08:18:46.800Z,99314.99
2022-10-18T08:21:14.867Z,99309.33
2022-10-18T08:23:42.000Z,99306.55
2022-10-18T08:26:11.356Z,99307.18
2022-10-18T08:28:38.177Z,99310.49
2022-10-18T08:31:11.198Z,99306.64
2022-10-18T08:33:38.166Z,99300.91
2022-10-18T08:36:07.914Z,99300.17
2022-10-18T08:38:36.086Z,99293.94
2022-10-18T08:41:16.960Z,99286.34
2022-10-18T08:43:56.504Z,99281.33
2022-10-18T08:46:23.060Z,99275.36
2022-10-18T08:48:54.196Z,99274.66
2022-10-18T08:51:45.238Z,99268.47
2022-10-18T08:54:24.226Z,99270.82
2022-10-18T08:57:01.550Z,99266.35
2022-10-18T08:59:42.006Z,99265.19
2022-10-18T09:02:27.266Z,99258.27
2022-10-18T09:05:25.226Z,99253.13
2022-10-18T09:08:01.247Z,99250.18
2022-10-18T09:10:41.735Z,99248.88
2022-10-18T09:13:27.359Z,99249.17
2022-10-18T09:16:01.373Z,99242.48
2022-10-18T09:18:51.982Z,99238.70
2022-10-18T09:21:24.297Z,99232.44
2022-10-18T09:24:05.690Z,99227.01
2022-10-18T09:26:42.124Z,99224.03
2022-10-18T09:29:30.401Z,99228.30
2022-10-18T09:32:22.296Z,99224.82
2022-10-18T09:35:04.482Z,99226.52
2022-10-18T09:37:34.332Z,99220.38
2022-10-18T09:40:18.046Z,99216.61
2022-10-18T09:42:55.534Z,99216.71
2022-10-18T09:45:32.574Z,99215.68
2022-10-18T09:48:21.727Z,99213.85
2022-10-18T09:50:58.102Z,99203.06
2022-10-18T09:53:30.361Z,99203.52
2022-10-18T09:56:09.301Z,99195.05
2022-10-18T09:58:41.907Z,99190.00
2022-10-18T10:01:09.654Z,99181.41
2022-10-18T10:03:36.420Z,99179.38
2022-10-18T10:06:16.769Z,99175.53
2022-10-18T10:08:47.653Z,99171.74
2022-10-18T10:11:37.535Z,99173.18
2022-10-18T10:14:10.171Z,99166.52
2022-10-18T10:16:47.060Z,99164.92
2022-10-18T10:19:35.267Z,99156.70
2022-10-18T10:22:06.416Z,99154.86
2022-10-18T10:24:37.192Z,99145.06
2022-10-18T10:27:06.967Z,99142.16
2022-10-18T10:29:45.810Z,99132.62
2022-10-18T10:32:13.841Z,99125.02
2022-10-18T10:34:42.431Z,99124.50
2022-10-18T10:37:23.784Z,99119.23
2022-10-18T10:40:18.731Z,99118.34
2022-10-18T10:43:08.728Z,99107.75
2022-10-18T10:46:19.282Z,99106.25
2022-10-18T10:48:48.969Z,99102.35
2022-10-18T10:51:30.478Z,99095.92
2022-10-18T10:54:05.908Z,99096.23
2022-10-18T10:56:56.535Z,99090.52
2022-10-18T10:59:24.487Z,99080.48
2022-10-18T11:02:17.815Z,99079.70
2022-10-18T11:04:46.112Z,99071.46
2022-10-18T11:07:40.766Z,99071.83
2022-10-18T11:10:10.449Z,99065.20
2022-10-18T11:12:49.476Z,99062.40
2022-10-18T11:15:33.015Z,99051.22
2022-10-18T11:17:59.433Z,99043.08
2022-10-18T11:20:36.953Z,99043.70
2022-10-18T11:23:08.161Z,99033.27
2022-10-18T11:25:56.550Z,99036.59
2022-10-18T11:28:36.954Z,99027.80
2022-10-18T11:31:24.512Z,99026.90
2022-10-18T11:34:21.857Z,99022.83
2022-10-18T11:40:21.145Z,99012.30
2022-10-18T11:43:08.985Z,99007.85
2022-10-18T11:45:41.876Z,99006.02
2022-10-18T11:48:36.060Z,99004.24
2022-10-18T11:51:40.102Z,98998.51
2022-10-18T11:54:52.185Z,98991.92
2022-10-18T11:57:43.107Z,98985.79
2022-10-18T12:00:18.684Z,98982.36
2022-10-18T12:03:03.909Z,98977.08
2022-10-18T12:05:32.931Z,98970.63
2022-10-18T12:08:03.456Z,98968.20
2022-10-18T12:10:46.002Z,98965.57
2022-10-18T12:13:29.417Z,98961.52
2022-10-18T12:15:56.371Z,98953.95
2022-10-18T12:18:24.913Z,98950.41
2022-10-18T12:20:54.778Z,98943.39
2022-10-18T12:23:30.240Z,98940.52
2022-10-18T12:26:02.442Z,98933.13
2022-10-18T12:28:54.689Z,98933.62
2022-10-18T12:31:26.634Z,98927.72
2022-10-18T12:33:58.684Z,98928.70
2022-10-18T12:36:47.984Z,98927.95
2022-10-18T12:39:38.952Z,98922.70
2022-10-18T12:42:23.053Z,98919.61
2022-10-18T12:44:59.979Z,98917.19
2022-10-18T12:47:29.127Z,98916.23
2022-10-18T12:50:02.773Z,98913.02
2022-10-18T12:52:31.256Z,98911.71
2022-10-18T12:55:20.799Z,98912.27
2022-10-18T12:57:53.472Z,98907.55
2022-10-18T13:00:32.315Z,98899.77
2022-10-18T13:03:14.304Z,98895.52
2022-10-18T13:05:54.548Z,98889.23
2022-10-18T13:08:28.490Z,98891.67
2022-10-18T13:11:10.098Z,98889.48
2022-10-18T13:14:07.023Z,98892.05
2022-10-18T13:17:03.326Z,98891.89
2022-10-18T13:20:02.831Z,98885.33
2022-10-18T13:22:48.772Z,98877.64
2022-10-18T13:25:18.268Z,98872.92
2022-10-18T13:27:53.837Z,98871.45
2022-10-18T13:30:50.478Z,98867.86
2022-10-18T13:33:37.598Z,98860.57
2022-10-18T13:36:06.818Z,98855.63
2022-10-18T13:38:39.383Z,98851.17
2022-10-18T13:41:21.015Z,98848.87
2022-10-18T13:43:53.371Z,98842.09
2022-10-18T13:46:21.851Z,98844.54
2022-10-18T13:49:21.766Z,98842.25
2022-10-18T13:52:14.214Z,98838.85
2022-10-18T13:54:59.483Z,98837.85
2022-10-18T13:57:48.976Z,98839.07
2022-10-18T14:00:24.731Z,98837.35
2022-10-18T14:03:31.709Z,98838.73
2022-10-18T14:06:04.698Z,98834.83
2022-10-18T14:08:41.603Z,98832.44
2022-10-18T14:11:26.676Z,98831.09
2022-10-18T14:14:04.115Z,98828.52
2022-10-18T14:16:54.888Z,98826.02
2022-10-18T14:19:44.773Z,98821.59
2022-10-18T14:22:21.059Z,98817.21
2022-10-18T14:24:52.753Z,98810.50
2022-10-18T14:27:25.092Z,98810.65
2022-10-18T14:30:09.331Z,98806.11
2022-10-18T14:32:36.690Z,98802.41
2022-10-18T14:35:33.450Z,98798.45
2022-10-18T14:37:52.976Z,98796.32
2022-10-18T14:40:37.176Z,98796.46
2022-10-18T14:43:09.801Z,98795.58
2022-10-18T14:45:36.305Z,98790.64
2022-10-18T14:48:20.553Z,98790.57
2022-10-18T14:50:54.171Z,98781.95
2022-10-18T14:53:20.843Z,98777.86
2022-10-18T14:55:56.551Z,98777.12
2022-10-18T14:58:23.812Z,98777.19
2022-10-18T15:00:50.476Z,98774.90
2022-10-18T15:03:18.132Z,98773.70
2022-10-18T15:06:00.092Z,98771.42
2022-10-18T15:08:34.370Z,98764.52
2022-10-18T15:11:01.510Z,98761.33
2022-10-18T15:13:28.461Z,98755.64
2022-10-18T15:15:56.233Z,98756.44
2022-10-18T15:18:27.899Z,98755.55
2022-10-18T15:21:20.050Z,98752.18
2022-10-18T15:23:46.675Z,98745.05
2022-10-18T15:26:19.868Z,98740.50
2022-10-18T15:28:50.550Z,98730.45
2022-10-18T15:31:31.862Z,98734.64
2022-10-18T15:34:26.487Z,98740.31
2022-10-18T15:36:55.699Z,98739.34
2022-10-18T15:39:25.438Z,98736.50
2022-10-18T15:41:57.928Z,98742.23
2022-10-18T15:44:28.939Z,98736.48
2022-10-18T15:47:09.919Z,98735.46
2022-10-18T15:49:45.468Z,98741.28
2022-10-18T15:52:38.282Z,98746.18
2022-10-18T15:55:31.271Z,98751.29
2022-10-18T15:58:16.054Z,98754.27
2022-10-18T16:00:43.925Z,98759.80
2022-10-18T16:03:10.976Z,98765.39
2022-10-18T16:05:38.852Z,98768.26
2022-10-18T16:08:05.693Z,98770.64
2022-10-18T16:10:32.219Z,98781.84
2022-10-18T16:12:58.775Z,98782.67
2022-10-18T16:15:25.309Z,98782.71
2022-10-18T16:17:52.278Z,98788.98
2022-10-18T16:20:22.199Z,98788.15
2022-10-18T16:22:48.817Z,98793.15
2022-10-18T16:25:15.868Z,98794.28
2022-10-18T16:27:42.611Z,98789.94
2022-10-18T16:30:20.113Z,98796.56
2022-10-18T16:32:46.749Z,98797.48
2022-10-18T16:35:13.366Z,98797.42
2022-10-18T16:37:40.349Z,98799.42
2022-10-18T16:40:23.394Z,98798.02
2022-10-18T16:42:50.231Z,98800.00
2022-10-18T16:45:17.179Z,98800.20
2022-10-18T16:47:44.230Z,98800.46
2022-10-18T16:50:20.089Z,98797.29
2022-10-18T16:52:46.832Z,98794.72
2022-10-18T16:55:13.475Z,98792.92
2022-10-18T16:57:40.120Z,98793.98
2022-10-18T17:00:07.589Z,98797.21
2022-10-18T17:02:34.629Z,98798.65
2022-10-18T17:05:01.482Z,98802.80
2022-10-18T17:07:28.225Z,98810.38
2022-10-18T17:09:54.834Z,98807.15
2022-10-18T17:12:21.303Z,98813.77
2022-10-18T17:14:48.050Z,98818.96
2022-10-18T17:17:14.693Z,98823.19
2022-10-18T17:19:41.463Z,98825.30
2022-10-18T17:22:08.179Z,98827.10
2022-10-18T17:24:34.717Z,98827.15
2022-10-18T17:27:01.543Z,98827.48
2022-10-18T17:29:28.110Z,98828.58
2022-10-18T17:31:54.743Z,98828.38
2022-10-18T17:34:21.604Z,98830.41
2022-10-18T17:36:48.337Z,98831.45
2022-10-18T17:39:14.873Z,98832.94
2022-10-18T17:41:41.413Z,98826.05
2022-10-18T17:44:08.101Z,98829.02
2022-10-18T17:46:34.702Z,98831.49
2022-10-18T17:49:01.342Z,98826.35
2022-10-18T17:51:28.090Z,98824.70
2022-10-18T17:53:54.836Z,98821.42
2022-10-18T17:56:21.475Z,98822.30
2022-10-18T17:58:51.704Z,98819.23
2022-10-18T18:01:22.431Z,98824.39
2022-10-18T18:03:49.493Z,98818.69
2022-10-18T18:06:27.139Z,98820.01
2022-10-18T18:08:53.637Z,98823.36
2022-10-18T18:11:20.172Z,98821.54
2022-10-18T18:13:46.668Z,98823.19
2022-10-18T18:16:17.047Z,98822.41
2022-10-18T18:18:44.206Z,98821.56
2022-10-18T18:21:11.671Z,98822.66
2022-10-18T18:23:38.511Z,98822.30
2022-10-18T18:26:05.977Z,98820.23
2022-10-18T18:28:32.547Z,98816.86
2022-10-18T18:30:59.256Z,98820.13
2022-10-18T18:33:26.003Z,98817.45
2022-10-18T18:35:57.046Z,98818.17
2022-10-18T18:38:24.100Z,98820.53
2022-10-18T18:40:50.743Z,98819.41
2022-10-18T18:43:24.564Z,98824.11
2022-10-18T18:45:51.702Z,98825.73
2022-10-18T18:48:19.870Z,98830.73
2022-10-18T18:50:47.135Z,98835.81
2022-10-18T18:53:13.678Z,98833.50
2022-10-18T18:55:40.221Z,98832.38
2022-10-18T18:58:06.758Z,98832.08
2022-10-18T19:00:33.399Z,98835.90
2022-10-18T19:03:00.144Z,98839.38
2022-10-18T19:05:26.790Z,98839.22
2022-10-18T19:07:53.428Z,98840.78
2022-10-18T19:10:20.170Z,98835.89
2022-10-18T19:12:46.814Z,98835.86
2022-10-18T19:15:13.456Z,98841.10
2022-10-18T19:17:40.172Z,98839.05
2022-10-18T19:20:07.147Z,98834.15
2022-10-18T19:22:33.689Z,98833.01
2022-10-18T19:25:00.134Z,98831.16
2022-10-18T19:27:26.576Z,98834.52
2022-10-18T19:29:53.012Z,98834.21
2022-10-18T19:32:19.604Z,98839.20
2022-10-18T19:34:46.286Z,98836.91
2022-10-18T19:37:13.873Z,98837.15
2022-10-18T19:39:40.492Z,98839.75
2022-10-18T19:42:11.128Z,98845.77
2022-10-18T19:44:37.710Z,98842.97
2022-10-18T19:47:10.791Z,98841.71
2022-10-18T19:49:38.832Z,98847.52
2022-10-18T19:52:05.320Z,98846.73
2022-10-18T19:54:31.918Z,98848.33
2022-10-18T19:56:58.354Z,98848.40
2022-10-18T19:59:25.007Z,98855.00
2022-10-18T20:01:51.542Z,98857.23
2022-10-18T20:04:18.082Z,98855.87
2022-10-18T20:06:44.629Z,98852.13
2022-10-18T20:09:16.068Z,98858.58
2022-10-18T20:11:46.016Z,98856.91
2022-10-18T20:14:12.538Z,98848.89
2022-10-18T20:16:39.080Z,98853.33
2022-10-18T20:19:07.476Z,98853.95
2022-10-18T20:21:34.774Z,98853.63
2022-10-18T20:24:02.594Z,98855.23
2022-10-18T20:26:29.099Z,98848.23
2022-10-18T20:28:57.075Z,98845.16
2022-10-18T20:31:29.621Z,98854.86
2022-10-18T20:34:04.224Z,98847.38
2022-10-18T20:36:31.795Z,98844.27
2022-10-18T20:38:58.952Z,98849.13
2022-10-18T20:41:33.201Z,98842.61
2022-10-18T20:44:01.931Z,98843.14
2022-10-18T20:46:34.376Z,98838.19
2022-10-18T20:49:01.504Z,98837.04
2022-10-18T20:51:28.340Z,98835.23
2022-10-18T20:53:55.117Z,98842.09
2022-10-18T20:56:24.698Z,98837.66
2022-10-18T20:58:54.290Z,98845.09
2022-10-18T21:01:33.051Z,98841.54
2022-10-18T21:04:05.339Z,98843.55
2022-10-18T21:06:35.130Z,98844.74
2022-10-18T21:09:06.714Z,98847.52
2022-10-18T21:11:39.864Z,98845.98
2022-10-18T21:14:07.598Z,98838.15
2022-10-18T21:16:36.003Z,98840.20
2022-10-18T21:19:14.713Z,98841.39
2022-10-18T21:21:46.132Z,98839.38
2022-10-18T21:24:15.168Z,98840.16
2022-10-18T21:26:42.164Z,98844.98
2022-10-18T21:29:11.303Z,98848.65
2022-10-18T21:31:40.056Z,98848.05
2022-10-18T21:34:10.087Z,98852.10
2022-10-18T21:36:37.230Z,98853.98
2022-10-18T21:39:06.124Z,98853.85
2022-10-18T21:41:33.546Z,98855.42
2022-10-18T21:44:00.533Z,98857.20
2022-10-18T21:46:27.005Z,98863.45
2022-10-18T21:48:55.553Z,98867.06
2022-10-18T21:51:24.811Z,98867.07
2022-10-18T21:53:54.161Z,98867.33
2022-10-18T21:56:23.787Z,98867.39
2022-10-18T21:58:52.365Z,98865.12
2022-10-18T22:01:22.014Z,98867.77
2022-10-18T22:03:51.683Z,98866.96
2022-10-18T22:06:19.375Z,98871.56
2022-10-18T22:08:51.791Z,98870.58
2022-10-18T22:11:22.169Z,98878.57
2022-10-18T22:13:48.906Z,98882.23
2022-10-18T22:16:17.082Z,98881.00
2022-10-18T22:18:45.569Z,98876.48
2022-10-18T22:21:14.735Z,98862.73
2022-10-18T22:23:46.561Z,98869.15
2022-10-18T22:26:21.469Z,98874.73
2022-10-18T22:28:53.804Z,98880.84
2022-10-18T22:31:23.190Z,98882.15
2022-10-18T22:33:55.013Z,98894.13
2022-10-18T22:36:22.273Z,98901.58
2022-10-18T22:38:49.013Z,98902.45
2022-10-18T22:41:15.654Z,98902.20
2022-10-18T22:43:42.599Z,98910.33
2022-10-18T22:46:13.448Z,98910.96
2022-10-18T22:48:40.552Z,98921.85
2022-10-18T22:51:07.955Z,98923.71
2022-10-18T22:53:36.232Z,98921.22
2022-10-18T22:56:04.016Z,98924.65
2022-10-18T22:58:30.848Z,98936.16
2022-10-18T23:01:06.495Z,98938.48
2022-10-18T23:03:33.747Z,98943.83
2022-10-18T23:06:00.302Z,98947.58
2022-10-18T23:08:27.102Z,98947.90
2022-10-18T23:10:56.160Z,98950.03
2022-10-18T23:13:24.685Z,98947.34
2022-10-18T23:15:51.585Z,98946.19
2022-10-18T23:18:18.638Z,98943.77
2022-10-18T23:20:45.793Z,98940.90
2022-10-18T23:23:13.500Z,98942.16
2022-10-18T23:25:40.200Z,98940.52
2022-10-18T23:28:07.153Z,98938.83
2022-10-18T23:30:33.874Z,98936.81
2022-10-18T23:33:00.706Z,98936.93
2022-10-18T23:35:27.125Z,98935.65
2022-10-18T23:37:53.622Z,98932.11
2022-10-18T23:40:20.025Z,98935.45
2022-10-18T23:42:46.609Z,98932.92
2022-10-18T23:45:13.133Z,98933.91
2022-10-18T23:47:39.568Z,98930.90
2022-10-18T23:50:06.518Z,98929.19
2022-10-18T23:52:33.158Z,98928.59
2022-10-18T23:54:59.591Z,98929.52
2022-10-18T23:57:29.724Z,98928.27
2022-10-18T23:59:58.000Z,98931.81
